createdAt,value
2023-05-13T00:02:02.369Z,10.79
2023-05-13T00:04:32.671Z,10.78
2023-05-13T00:07:02.928Z,10.70
2023-05-13T00:09:33.208Z,10.68
2023-05-13T00:12:03.591Z,10.77
2023-05-13T00:14:36.401Z,10.87
2023-05-13T00:17:07.199Z,10.80
2023-05-13T00:19:37.393Z,10.73
2023-05-13T00:22:08.074Z,10.75
2023-05-13T00:24:38.252Z,10.79
2023-05-13T00:27:08.843Z,10.80
2023-05-13T00:29:42.177Z,10.79
2023-05-13T00:32:12.336Z,10.74
2023-05-13T00:34:42.521Z,10.74
2023-05-13T00:37:14.300Z,10.72
2023-05-13T00:39:44.921Z,10.77
2023-05-13T00:42:15.399Z,10.82
2023-05-13T00:44:48.275Z,10.86
2023-05-13T00:47:20.005Z,10.89
2023-05-13T00:49:50.858Z,10.96
2023-05-13T00:52:21.137Z,11.05
2023-05-13T00:54:51.416Z,11.06
2023-05-13T00:57:22.013Z,11.00
2023-05-13T00:59:56.186Z,10.96
2023-05-13T01:02:34.791Z,10.89
2023-05-13T01:05:22.158Z,10.74
2023-05-13T01:08:04.191Z,10.78
2023-05-13T01:10:44.745Z,10.80
2023-05-13T01:13:21.351Z,10.73
2023-05-13T01:16:03.164Z,10.50
2023-05-13T01:18:40.585Z,10.33
2023-05-13T01:21:12.482Z,10.15
2023-05-13T01:23:45.326Z,10.06
2023-05-13T01:26:15.675Z,9.91
2023-05-13T01:28:46.266Z,9.74
2023-05-13T01:31:18.442Z,9.64
2023-05-13T01:33:50.618Z,9.52
2023-05-13T01:36:21.211Z,9.41
2023-05-13T01:38:55.692Z,9.30
2023-05-13T01:41:26.676Z,9.31
2023-05-13T01:43:57.813Z,9.29
2023-05-13T01:46:29.353Z,9.33
2023-05-13T01:48:59.767Z,9.51
2023-05-13T01:51:30.062Z,9.67
2023-05-13T01:54:02.850Z,9.75
2023-05-13T01:56:33.303Z,9.75
2023-05-13T01:59:03.836Z,9.80
2023-05-13T02:01:34.138Z,9.91
2023-05-13T02:04:04.576Z,10.14
2023-05-13T02:06:35.178Z,10.06
2023-05-13T02:09:08.403Z,10.26
2023-05-13T02:11:41.891Z,10.38
2023-05-13T02:14:12.253Z,10.39
2023-05-13T02:16:42.565Z,10.28
2023-05-13T02:19:13.027Z,10.45
2023-05-13T02:21:43.661Z,10.49
2023-05-13T02:24:16.624Z,10.41
2023-05-13T02:26:47.793Z,10.57
2023-05-13T02:29:18.079Z,10.61
2023-05-13T02:31:48.370Z,10.57
2023-05-13T02:34:18.898Z,10.62
2023-05-13T02:36:49.317Z,10.51
2023-05-13T02:39:22.110Z,10.42
2023-05-13T02:41:52.981Z,10.58
2023-05-13T02:44:23.251Z,10.54
2023-05-13T02:46:53.646Z,10.56
2023-05-13T02:49:23.868Z,10.37
2023-05-13T02:51:54.058Z,10.50
2023-05-13T02:54:32.203Z,10.51
2023-05-13T02:57:02.778Z,10.56
2023-05-13T02:59:33.049Z,10.51
2023-05-13T03:02:03.651Z,10.52
2023-05-13T03:04:33.867Z,10.49
2023-05-13T03:07:04.099Z,10.47
2023-05-13T03:09:39.326Z,10.50
2023-05-13T03:12:11.709Z,10.52
2023-05-13T03:14:43.055Z,10.43
2023-05-13T03:17:13.803Z,10.38
2023-05-13T03:19:44.141Z,10.25
2023-05-13T03:22:14.462Z,10.23
2023-05-13T03:24:47.275Z,10.24
2023-05-13T03:27:18.109Z,10.23
2023-05-13T03:29:48.353Z,10.35
2023-05-13T03:32:18.757Z,10.37
2023-05-13T03:34:49.168Z,10.39
2023-05-13T03:37:20.524Z,10.44
2023-05-13T03:39:53.661Z,10.51
2023-05-13T03:42:24.199Z,10.46
2023-05-13T03:44:57.145Z,10.36
2023-05-13T03:47:27.845Z,10.33
2023-05-13T03:50:02.595Z,10.42
2023-05-13T03:52:39.353Z,10.47
2023-05-13T03:55:14.965Z,10.47
2023-05-13T03:57:50.180Z,10.38
2023-05-13T04:00:23.210Z,10.16
2023-05-13T04:02:53.829Z,10.25
2023-05-13T04:05:24.504Z,10.47
2023-05-13T04:07:56.231Z,10.40
2023-05-13T04:10:30.150Z,10.41
2023-05-13T04:13:01.170Z,10.36
2023-05-13T04:15:31.875Z,10.44
2023-05-13T04:18:02.538Z,10.40
2023-05-13T04:20:32.968Z,10.31
2023-05-13T04:23:04.023Z,10.41
2023-05-13T04:25:39.052Z,10.50
2023-05-13T04:28:09.423Z,10.50
2023-05-13T04:30:46.357Z,10.40
2023-05-13T04:33:16.796Z,10.27
2023-05-13T04:35:49.227Z,10.21
2023-05-13T04:38:19.443Z,10.22
2023-05-13T04:40:52.467Z,10.25
2023-05-13T04:43:29.434Z,10.36
2023-05-13T04:46:01.688Z,10.26
2023-05-13T04:48:33.214Z,10.20
2023-05-13T04:51:03.862Z,10.22
2023-05-13T04:53:34.757Z,10.55
2023-05-13T04:56:11.638Z,10.48
2023-05-13T04:58:41.834Z,10.41
2023-05-13T05:01:12.123Z,10.44
2023-05-13T05:03:42.555Z,10.50
2023-05-13T05:06:13.020Z,10.59
2023-05-13T05:08:44.340Z,10.54
2023-05-13T05:11:17.148Z,10.62
2023-05-13T05:13:47.635Z,10.67
2023-05-13T05:16:20.226Z,10.59
2023-05-13T05:18:51.124Z,10.65
2023-05-13T05:21:21.676Z,10.61
2023-05-13T05:23:52.536Z,10.88
2023-05-13T05:26:26.393Z,10.98
2023-05-13T05:28:56.779Z,11.11
2023-05-13T05:31:27.767Z,11.25
2023-05-13T05:34:01.158Z,11.35
2023-05-13T05:36:32.476Z,11.46
2023-05-13T05:39:02.890Z,11.51
2023-05-13T05:41:38.696Z,11.49
2023-05-13T05:44:09.934Z,11.71
2023-05-13T05:46:40.138Z,11.80
2023-05-13T05:49:11.500Z,11.82
2023-05-13T05:51:41.804Z,11.53
2023-05-13T05:54:12.388Z,11.70
2023-05-13T05:56:45.281Z,11.87
2023-05-13T05:59:15.580Z,12.02
2023-05-13T06:01:46.366Z,12.13
2023-05-13T06:04:17.541Z,12.14
2023-05-13T06:06:48.861Z,12.20
2023-05-13T06:09:19.663Z,12.08
2023-05-13T06:11:52.730Z,11.83
2023-05-13T06:14:22.967Z,11.85
2023-05-13T06:16:54.982Z,11.93
2023-05-13T06:19:26.040Z,12.15
2023-05-13T06:21:56.310Z,12.10
2023-05-13T06:24:26.593Z,12.22
2023-05-13T06:26:59.431Z,12.51
2023-05-13T06:29:29.638Z,12.77
2023-05-13T06:32:00.166Z,12.92
2023-05-13T06:34:31.213Z,13.06
2023-05-13T06:37:02.466Z,13.17
2023-05-13T06:39:32.706Z,13.41
2023-05-13T06:42:05.645Z,13.77
2023-05-13T06:44:38.969Z,13.92
2023-05-13T06:47:10.590Z,13.98
2023-05-13T06:49:41.152Z,13.98
2023-05-13T06:52:13.601Z,14.24
2023-05-13T06:54:43.845Z,14.36
2023-05-13T06:57:16.696Z,14.31
2023-05-13T06:59:48.292Z,14.48
2023-05-13T07:02:18.546Z,14.72
2023-05-13T07:04:48.764Z,15.20
2023-05-13T07:07:18.926Z,15.20
2023-05-13T07:09:49.166Z,15.25
2023-05-13T07:12:21.993Z,15.32
2023-05-13T07:14:52.369Z,15.74
2023-05-13T07:17:22.800Z,16.14
2023-05-13T07:19:53.085Z,16.51
2023-05-13T07:22:23.295Z,16.55
2023-05-13T07:24:53.468Z,16.26
2023-05-13T07:27:26.420Z,16.68
2023-05-13T07:29:56.832Z,16.52
2023-05-13T07:32:27.112Z,16.53
2023-05-13T07:34:57.302Z,16.16
2023-05-13T07:37:27.595Z,15.99
2023-05-13T07:39:57.838Z,16.03
2023-05-13T07:42:31.015Z,15.66
2023-05-13T07:45:01.355Z,15.35
2023-05-13T07:47:32.109Z,15.63
2023-05-13T07:50:02.531Z,15.52
2023-05-13T07:52:32.888Z,15.84
2023-05-13T07:55:03.430Z,16.18
2023-05-13T07:57:36.695Z,15.92
2023-05-13T08:00:08.427Z,15.70
2023-05-13T08:02:46.041Z,15.39
2023-05-13T08:05:16.264Z,15.42
2023-05-13T08:07:46.458Z,15.64
2023-05-13T08:10:16.798Z,16.04
2023-05-13T08:12:53.728Z,16.21
2023-05-13T08:15:24.219Z,15.88
2023-05-13T08:17:54.747Z,15.52
2023-05-13T08:20:29.980Z,14.98
2023-05-13T08:23:02.183Z,14.70
2023-05-13T08:25:32.465Z,14.31
2023-05-13T08:28:06.397Z,14.24
2023-05-13T08:30:36.776Z,14.39
2023-05-13T08:33:08.467Z,14.50
2023-05-13T08:35:38.767Z,14.42
2023-05-13T08:38:08.974Z,14.60
2023-05-13T08:40:39.203Z,14.83
2023-05-13T08:43:17.826Z,14.47
2023-05-13T08:45:50.900Z,14.34
2023-05-13T08:48:23.346Z,14.60
2023-05-13T08:50:54.741Z,14.84
2023-05-13T08:53:28.033Z,14.62
2023-05-13T08:55:59.527Z,14.80
2023-05-13T08:58:32.338Z,14.72
2023-05-13T09:01:02.642Z,14.45
2023-05-13T09:03:33.534Z,14.50
2023-05-13T09:06:04.726Z,14.28
2023-05-13T09:08:35.555Z,14.14
2023-05-13T09:11:06.300Z,14.40
2023-05-13T09:13:39.274Z,14.37
2023-05-13T09:16:09.993Z,14.10
2023-05-13T09:18:42.246Z,14.26
2023-05-13T09:21:29.428Z,14.79
2023-05-13T09:24:11.278Z,14.61
2023-05-13T09:26:43.224Z,14.95
2023-05-13T09:29:29.456Z,14.89
2023-05-13T09:32:03.071Z,15.19
2023-05-13T09:34:37.144Z,15.82
2023-05-13T09:37:09.795Z,16.05
2023-05-13T09:39:44.677Z,16.13
2023-05-13T09:42:19.441Z,16.16
2023-05-13T09:44:52.335Z,16.29
2023-05-13T09:47:22.603Z,15.93
2023-05-13T09:49:59.462Z,15.53
2023-05-13T09:52:29.686Z,15.57
2023-05-13T09:55:00.435Z,15.31
2023-05-13T09:57:31.306Z,15.48
2023-05-13T10:00:08.220Z,15.96
2023-05-13T10:02:42.415Z,16.24
2023-05-13T10:05:14.406Z,16.98
2023-05-13T10:07:44.953Z,16.74
2023-05-13T10:10:15.697Z,17.13
2023-05-13T10:12:46.181Z,17.18
2023-05-13T10:15:19.681Z,16.86
2023-05-13T10:17:50.812Z,17.32
2023-05-13T10:20:23.163Z,16.87
2023-05-13T10:22:54.142Z,17.12
2023-05-13T10:25:25.278Z,17.07
2023-05-13T10:28:00.204Z,17.18
2023-05-13T10:30:35.995Z,17.10
2023-05-13T10:33:07.261Z,16.23
2023-05-13T10:35:59.501Z,16.98
2023-05-13T10:38:52.314Z,17.32
2023-05-13T10:42:03.046Z,17.78
2023-05-13T10:44:34.784Z,17.18
2023-05-13T10:47:08.159Z,17.69
2023-05-13T10:49:39.827Z,18.23
2023-05-13T10:52:13.587Z,18.60
2023-05-13T10:54:44.727Z,18.80
2023-05-13T10:57:18.329Z,18.56
2023-05-13T11:00:19.119Z,18.24
2023-05-13T11:02:54.945Z,17.31
2023-05-13T11:05:25.507Z,17.30
2023-05-13T11:07:59.821Z,16.92
2023-05-13T11:10:32.720Z,17.02
2023-05-13T11:13:27.388Z,16.27
2023-05-13T11:15:58.178Z,17.04
2023-05-13T11:18:37.923Z,17.42
2023-05-13T11:21:10.193Z,17.72
2023-05-13T11:23:56.163Z,17.31
2023-05-13T11:26:26.906Z,17.13
2023-05-13T11:29:03.542Z,16.94
2023-05-13T11:31:53.173Z,16.96
2023-05-13T11:34:26.978Z,17.67
2023-05-13T11:37:09.984Z,18.37
2023-05-13T11:39:43.276Z,18.90
2023-05-13T11:42:14.792Z,18.90
2023-05-13T11:44:49.663Z,19.38
2023-05-13T11:47:30.121Z,19.75
2023-05-13T11:50:04.022Z,19.81
2023-05-13T11:52:34.357Z,19.65
2023-05-13T11:55:06.954Z,19.26
2023-05-13T11:57:37.334Z,19.92
2023-05-13T12:00:12.864Z,19.67
2023-05-13T12:02:45.815Z,19.25
2023-05-13T12:05:18.697Z,19.36
2023-05-13T12:07:49.218Z,18.56
2023-05-13T12:10:19.920Z,18.83
2023-05-13T12:12:50.273Z,18.13
2023-05-13T12:15:23.873Z,18.40
2023-05-13T12:17:54.952Z,18.69
2023-05-13T12:20:28.233Z,18.57
2023-05-13T12:23:02.171Z,18.06
2023-05-13T12:25:45.808Z,17.58
2023-05-13T12:28:21.945Z,17.63
2023-05-13T12:30:58.913Z,17.59
2023-05-13T12:33:31.698Z,17.22
2023-05-13T12:36:25.872Z,17.53
2023-05-13T12:39:01.634Z,17.12
2023-05-13T12:41:35.138Z,17.53
2023-05-13T12:44:08.055Z,17.67
2023-05-13T12:46:39.915Z,18.00
2023-05-13T12:49:13.671Z,18.83
2023-05-13T12:51:46.501Z,19.34
2023-05-13T12:54:16.687Z,20.23
2023-05-13T12:56:47.249Z,21.16
2023-05-13T12:59:19.315Z,22.02
2023-05-13T13:01:51.356Z,21.57
2023-05-13T13:04:21.637Z,21.61
2023-05-13T13:06:54.733Z,20.60
2023-05-13T13:09:24.962Z,20.42
2023-05-13T13:11:55.138Z,19.53
2023-05-13T13:14:26.341Z,18.35
2023-05-13T13:16:56.917Z,17.47
2023-05-13T13:19:27.853Z,16.96
2023-05-13T13:22:00.878Z,17.02
2023-05-13T13:24:31.653Z,16.77
2023-05-13T13:27:01.945Z,16.59
2023-05-13T13:29:32.310Z,16.52
2023-05-13T13:32:02.704Z,16.58
2023-05-13T13:34:32.912Z,16.88
2023-05-13T13:37:05.744Z,17.19
2023-05-13T13:39:36.330Z,17.85
2023-05-13T13:42:08.013Z,18.50
2023-05-13T13:44:39.681Z,18.81
2023-05-13T13:47:09.993Z,18.31
2023-05-13T13:49:40.221Z,18.13
2023-05-13T13:52:13.403Z,17.91
2023-05-13T13:54:43.633Z,18.09
2023-05-13T13:57:14.905Z,18.07
2023-05-13T13:59:46.371Z,17.29
2023-05-13T14:02:17.515Z,17.24
2023-05-13T14:04:49.401Z,17.45
2023-05-13T14:07:22.269Z,17.28
2023-05-13T14:09:52.646Z,17.07
2023-05-13T14:12:23.176Z,16.80
2023-05-13T14:14:53.322Z,16.82
2023-05-13T14:17:23.918Z,16.39
2023-05-13T14:19:55.776Z,16.02
2023-05-13T14:22:28.819Z,15.59
2023-05-13T14:24:59.024Z,15.61
2023-05-13T14:27:29.202Z,15.50
2023-05-13T14:29:59.402Z,15.39
2023-05-13T14:32:29.719Z,15.51
2023-05-13T14:34:59.980Z,15.38
2023-05-13T14:37:33.326Z,15.37
2023-05-13T14:40:03.568Z,15.01
2023-05-13T14:42:33.890Z,14.90
2023-05-13T14:45:04.320Z,15.27
2023-05-13T14:47:35.466Z,15.99
2023-05-13T14:50:05.736Z,16.69
2023-05-13T14:52:39.074Z,17.59
2023-05-13T14:55:10.309Z,18.06
2023-05-13T14:57:41.214Z,18.39
2023-05-13T15:00:13.614Z,18.46
2023-05-13T15:02:44.054Z,19.05
2023-05-13T15:05:14.343Z,19.66
2023-05-13T15:07:47.321Z,20.11
2023-05-13T15:10:18.971Z,21.26
2023-05-13T15:12:49.187Z,23.64
2023-05-13T15:15:19.630Z,25.03
2023-05-13T15:17:49.884Z,25.30
2023-05-13T15:20:20.349Z,24.20
2023-05-13T15:22:53.226Z,23.12
2023-05-13T15:25:23.548Z,22.28
2023-05-13T15:27:54.104Z,20.96
2023-05-13T15:30:24.632Z,20.18
2023-05-13T15:32:54.920Z,19.33
2023-05-13T15:35:25.430Z,18.30
2023-05-13T15:37:58.429Z,18.09
2023-05-13T15:40:28.785Z,18.15
2023-05-13T15:42:59.072Z,18.02
2023-05-13T15:45:29.441Z,17.97
2023-05-13T15:47:59.752Z,17.97
2023-05-13T15:50:30.229Z,17.86
2023-05-13T15:53:03.355Z,18.09
2023-05-13T15:55:34.286Z,18.22
2023-05-13T15:58:04.491Z,18.64
2023-05-13T16:00:34.798Z,18.62
2023-05-13T16:03:05.021Z,18.87
2023-05-13T16:05:36.526Z,18.56
2023-05-13T16:08:09.540Z,17.87
2023-05-13T16:10:39.866Z,17.28
2023-05-13T16:13:10.148Z,16.92
2023-05-13T16:15:40.537Z,16.49
2023-05-13T16:18:10.816Z,16.39
2023-05-13T16:20:41.021Z,16.40
2023-05-13T16:23:13.873Z,16.68
2023-05-13T16:25:45.769Z,16.63
2023-05-13T16:28:15.933Z,16.55
2023-05-13T16:30:46.313Z,16.25
2023-05-13T16:33:17.926Z,16.08
2023-05-13T16:35:48.186Z,16.12
2023-05-13T16:38:20.953Z,16.20
2023-05-13T16:40:51.988Z,16.20
2023-05-13T16:43:22.369Z,16.28
2023-05-13T16:45:52.616Z,16.06
2023-05-13T16:48:23.003Z,16.05
2023-05-13T16:50:53.231Z,16.07
2023-05-13T16:53:26.430Z,15.84
2023-05-13T16:55:56.642Z,15.98
2023-05-13T16:58:27.061Z,16.06
2023-05-13T17:00:59.181Z,16.05
2023-05-13T17:03:29.762Z,15.97
2023-05-13T17:05:59.979Z,15.88
2023-05-13T17:08:32.979Z,15.86
2023-05-13T17:11:03.233Z,15.79
2023-05-13T17:13:36.295Z,15.81
2023-05-13T17:16:06.906Z,15.52
2023-05-13T17:18:37.168Z,15.61
2023-05-13T17:21:08.038Z,15.67
2023-05-13T17:23:40.849Z,15.80
2023-05-13T17:26:11.282Z,15.88
2023-05-13T17:28:42.133Z,15.74
2023-05-13T17:31:12.355Z,15.66
2023-05-13T17:33:42.626Z,15.65
2023-05-13T17:36:13.093Z,15.59
2023-05-13T17:38:45.960Z,15.59
2023-05-13T17:41:16.244Z,15.47
2023-05-13T17:43:46.530Z,15.54
2023-05-13T17:46:16.743Z,15.29
2023-05-13T17:48:47.299Z,15.20
2023-05-13T17:51:17.617Z,15.29
2023-05-13T17:53:50.721Z,15.34
2023-05-13T17:56:21.516Z,15.36
2023-05-13T17:58:51.688Z,15.24
2023-05-13T18:01:22.649Z,15.10
2023-05-13T18:03:52.877Z,15.13
2023-05-13T18:06:23.208Z,15.23
2023-05-13T18:08:56.097Z,15.24
2023-05-13T18:11:26.366Z,15.27
2023-05-13T18:13:56.659Z,15.20
2023-05-13T18:16:26.884Z,15.13
2023-05-13T18:18:57.244Z,15.05
2023-05-13T18:21:29.476Z,14.97
2023-05-13T18:24:02.347Z,14.81
2023-05-13T18:26:32.550Z,14.69
2023-05-13T18:29:02.778Z,14.74
2023-05-13T18:31:34.984Z,14.70
2023-05-13T18:34:05.805Z,14.69
2023-05-13T18:36:36.084Z,14.61
2023-05-13T18:39:09.928Z,14.63
2023-05-13T18:41:40.226Z,14.56
2023-05-13T18:44:10.518Z,14.44
2023-05-13T18:46:40.814Z,14.32
2023-05-13T18:49:11.091Z,14.21
2023-05-13T18:51:41.879Z,14.13
2023-05-13T18:54:14.676Z,14.02
2023-05-13T18:56:45.126Z,13.86
2023-05-13T18:59:16.458Z,13.59
2023-05-13T19:01:46.736Z,13.27
2023-05-13T19:04:17.543Z,13.04
2023-05-13T19:06:48.323Z,12.82
2023-05-13T19:09:21.740Z,12.71
2023-05-13T19:11:52.279Z,12.51
2023-05-13T19:14:22.998Z,12.43
2023-05-13T19:16:53.753Z,12.43
2023-05-13T19:19:24.325Z,12.42
2023-05-13T19:21:54.914Z,12.37
2023-05-13T19:24:28.201Z,12.42
2023-05-13T19:26:58.818Z,12.41
2023-05-13T19:29:29.462Z,12.38
2023-05-13T19:32:00.053Z,12.28
2023-05-13T19:34:30.672Z,12.12
2023-05-13T19:37:01.246Z,11.75
2023-05-13T19:39:34.443Z,11.53
2023-05-13T19:42:04.970Z,11.41
2023-05-13T19:44:35.953Z,11.24
2023-05-13T19:47:06.798Z,11.09
2023-05-13T19:49:37.478Z,11.01
2023-05-13T19:52:08.625Z,10.87
2023-05-13T19:54:41.762Z,10.85
2023-05-13T19:57:12.284Z,10.81
2023-05-13T19:59:42.876Z,10.71
2023-05-13T20:02:13.529Z,10.60
2023-05-13T20:04:44.161Z,10.45
2023-05-13T20:07:14.768Z,10.39
2023-05-13T20:09:47.953Z,10.29
2023-05-13T20:12:18.744Z,10.35
2023-05-13T20:14:51.980Z,10.49
2023-05-13T20:17:23.991Z,10.51
2023-05-13T20:19:56.199Z,10.68
2023-05-13T20:22:26.841Z,10.88
2023-05-13T20:25:00.004Z,11.06
2023-05-13T20:27:30.924Z,11.30
2023-05-13T20:30:02.281Z,11.38
2023-05-13T20:32:32.934Z,11.63
2023-05-13T20:35:03.603Z,11.79
2023-05-13T20:37:34.161Z,11.89
2023-05-13T20:40:08.059Z,12.03
2023-05-13T20:42:38.604Z,12.21
2023-05-13T20:45:10.688Z,12.33
2023-05-13T20:47:41.635Z,12.43
2023-05-13T20:50:13.586Z,12.36
2023-05-13T20:52:44.124Z,12.26
2023-05-13T20:55:17.966Z,12.16
2023-05-13T20:57:48.458Z,12.01
2023-05-13T21:00:20.236Z,11.95
2023-05-13T21:02:52.121Z,11.92
2023-05-13T21:05:23.108Z,11.88
2023-05-13T21:07:54.170Z,11.83
2023-05-13T21:10:27.604Z,11.75
2023-05-13T21:12:58.328Z,11.59
2023-05-13T21:15:29.273Z,11.47
2023-05-13T21:17:59.895Z,11.47
2023-05-13T21:20:32.757Z,11.48
2023-05-13T21:23:03.822Z,11.52
2023-05-13T21:25:37.253Z,11.60
2023-05-13T21:28:08.189Z,11.69
2023-05-13T21:30:38.850Z,11.65
2023-05-13T21:33:09.392Z,11.56
2023-05-13T21:35:39.949Z,11.60
2023-05-13T21:38:12.621Z,11.69
2023-05-13T21:40:47.001Z,11.67
2023-05-13T21:43:17.729Z,11.78
2023-05-13T21:45:50.797Z,11.81
2023-05-13T21:48:21.436Z,11.78
2023-05-13T21:50:52.916Z,11.79
2023-05-13T21:53:23.428Z,11.80
2023-05-13T21:55:59.116Z,11.69
2023-05-13T21:58:29.853Z,11.53
2023-05-13T22:01:00.464Z,11.41
2023-05-13T22:03:31.234Z,11.43
2023-05-13T22:06:02.501Z,11.52
2023-05-13T22:08:33.144Z,11.53
2023-05-13T22:11:07.001Z,11.41
2023-05-13T22:13:38.203Z,11.50
2023-05-13T22:16:09.361Z,11.56
2023-05-13T22:18:40.121Z,11.51
2023-05-13T22:21:10.754Z,11.38
2023-05-13T22:23:41.349Z,11.32
2023-05-13T22:26:14.914Z,11.28
2023-05-13T22:28:45.454Z,11.34
2023-05-13T22:31:16.062Z,11.40
2023-05-13T22:33:47.102Z,11.40
2023-05-13T22:36:17.819Z,11.28
2023-05-13T22:38:48.321Z,11.15
2023-05-13T22:41:23.878Z,11.17
2023-05-13T22:43:54.405Z,11.14
2023-05-13T22:46:24.924Z,11.25
2023-05-13T22:48:56.344Z,11.21
2023-05-13T22:51:26.820Z,11.23
2023-05-13T22:53:57.460Z,11.18
2023-05-13T22:56:31.453Z,11.11
2023-05-13T22:59:02.106Z,11.13
2023-05-13T23:01:32.843Z,11.10
2023-05-13T23:04:03.605Z,11.07
2023-05-13T23:06:34.221Z,11.05
2023-05-13T23:09:05.762Z,11.03
2023-05-13T23:11:39.581Z,11.05
2023-05-13T23:14:11.109Z,11.04
2023-05-13T23:16:41.825Z,11.03
2023-05-13T23:19:13.144Z,11.07
2023-05-13T23:21:43.925Z,11.07
2023-05-13T23:24:14.499Z,11.13
2023-05-13T23:26:47.956Z,11.13
2023-05-13T23:29:18.582Z,11.21
2023-05-13T23:31:49.281Z,11.23
2023-05-13T23:34:19.834Z,11.19
2023-05-13T23:36:50.613Z,11.24
2023-05-13T23:39:21.239Z,11.33
2023-05-13T23:41:54.585Z,11.35
2023-05-13T23:44:25.136Z,11.44
2023-05-13T23:46:55.731Z,11.44
2023-05-13T23:49:26.317Z,11.36
2023-05-13T23:51:56.859Z,11.30
2023-05-13T23:54:27.494Z,11.23
2023-05-13T23:57:00.846Z,11.25
2023-05-13T23:59:31.719Z,11.35
